Time;durP1;ratioP1;P1;durP2;ratioP2;P2;SDS_P1;SDS_P2;PMS_P1;PMS_P2;Temp;Humidity;BMP_temperature;BMP_pressure;BME280_temperature;BME280_humidity;BME280_pressure;Samples;Min_cycle;Max_cycle;Signal;HPM_P1;HPM_P2
2023/03/15 00:02:18;;;;;;;2.70;2.40;;;;;;;3.19;80.76;97685.83;222097;1274;22636;-77
2023/03/15 00:07:24;;;;;;;2.10;1.80;;;;;;;3.15;80.36;97700.88;222021;1274;22646;-77
2023/03/15 00:12:28;;;;;;;2.50;2.30;;;;;;;3.13;80.58;97732.77;222355;1271;25359;-77
2023/03/15 00:17:33;;;;;;;3.20;2.90;;;;;;;3.10;80.42;97760.08;221959;1274;22613;-76
2023/03/15 00:22:35;;;;;;;3.10;2.80;;;;;;;3.07;80.40;97773.64;222174;1274;22725;-78
2023/03/15 00:27:39;;;;;;;3.80;2.80;;;;;;;3.05;80.41;97783.42;222101;1274;25318;-77
2023/03/15 00:32:44;;;;;;;2.90;2.70;;;;;;;3.04;80.35;97791.86;222080;1274;24234;-77
2023/03/15 00:37:47;;;;;;;3.70;2.70;;;;;;;3.04;80.08;97800.25;222097;1274;25152;-76
2023/03/15 00:42:51;;;;;;;2.80;2.60;;;;;;;3.03;79.92;97814.73;222107;1273;22699;-77
2023/03/15 00:47:54;;;;;;;3.20;2.80;;;;;;;3.01;79.69;97831.45;222380;1272;22529;-77
2023/03/15 00:53:16;;;;;;;5.80;3.20;;;;;;;2.98;79.77;97845.55;222134;1274;25233;-77
2023/03/15 00:58:19;;;;;;;5.80;3.50;;;;;;;2.96;79.59;97865.62;222144;1272;24346;-76
2023/03/15 01:03:24;;;;;;;5.10;3.30;;;;;;;2.94;79.60;97870.55;222251;1274;22558;-76
2023/03/15 01:08:27;;;;;;;4.00;3.00;;;;;;;2.92;79.40;97890.10;222046;1274;22531;-76
2023/03/15 01:13:30;;;;;;;5.30;3.20;;;;;;;2.88;79.39;97891.23;222374;1274;22520;-77
2023/03/15 01:18:32;;;;;;;7.00;3.10;;;;;;;2.86;79.19;97892.30;222189;1274;23006;-77
2023/03/15 01:23:35;;;;;;;6.70;3.40;;;;;;;2.82;79.05;97903.73;222146;1274;23706;-75
2023/03/15 01:28:38;;;;;;;5.80;3.40;;;;;;;2.81;79.00;97914.48;222002;1274;22721;-77
2023/03/15 01:33:42;;;;;;;5.10;2.80;;;;;;;2.81;79.33;97932.89;222364;1271;25409;-76
2023/03/15 01:38:45;;;;;;;4.50;3.00;;;;;;;2.78;79.02;97934.98;222055;1274;25077;-77
2023/03/15 01:43:50;;;;;;;6.20;2.60;;;;;;;2.76;79.01;97946.91;222299;1274;22530;-77
2023/03/15 01:49:08;;;;;;;5.10;2.70;;;;;;;2.74;78.94;97949.34;222214;1273;22535;-76
2023/03/15 01:54:26;;;;;;;6.10;2.90;;;;;;;2.73;78.90;97959.53;222269;1271;22515;-77
2023/03/15 01:59:32;;;;;;;6.30;3.80;;;;;;;2.73;78.62;97965.93;222320;1274;25353;-77
2023/03/15 02:04:46;;;;;;;6.20;3.40;;;;;;;2.72;78.44;97962.23;222335;1272;22523;-77
2023/03/15 02:10:04;;;;;;;6.70;4.10;;;;;;;2.70;78.32;97961.55;222143;1273;22544;-77
2023/03/15 02:15:10;;;;;;;7.60;4.20;;;;;;;2.68;78.20;97969.23;222231;1274;22558;-76
2023/03/15 02:20:36;;;;;;;13.80;4.70;;;;;;;2.67;78.21;97968.73;221955;1274;22517;-77
2023/03/15 02:26:22;;;;;;;6.20;4.10;;;;;;;2.64;78.19;97970.34;222296;1274;24224;-75
2023/03/15 02:31:25;;;;;;;7.20;4.30;;;;;;;2.60;78.10;97965.20;221317;1274;22527;-76
2023/03/15 02:36:28;;;;;;;10.10;5.00;;;;;;;2.58;78.13;97973.66;222060;1268;22526;-77
2023/03/15 02:41:37;;;;;;;6.90;4.70;;;;;;;2.55;78.29;97977.85;222072;1274;25259;-76
2023/03/15 02:46:41;;;;;;;9.90;4.50;;;;;;;2.53;78.19;97985.60;222265;1274;22526;-77
2023/03/15 02:51:43;;;;;;;7.20;4.50;;;;;;;2.52;78.34;98004.35;222216;1274;276040;-77
2023/03/15 02:56:45;;;;;;;10.80;4.80;;;;;;;2.50;78.43;98014.64;221969;1273;24394;-77
2023/03/15 03:01:48;;;;;;;9.20;4.90;;;;;;;2.47;78.33;98021.14;221935;1274;24395;-77
2023/03/15 03:06:50;;;;;;;10.20;4.50;;;;;;;2.45;78.48;98021.48;222159;1274;22622;-77
2023/03/15 03:11:56;;;;;;;6.60;4.60;;;;;;;2.43;78.52;98028.15;222247;1274;22535;-77
2023/03/15 03:17:00;;;;;;;7.10;4.20;;;;;;;2.41;78.53;98034.26;222245;1273;22545;-76
2023/03/15 03:22:03;;;;;;;9.30;4.60;;;;;;;2.39;78.56;98035.13;222183;1273;22671;-76
2023/03/15 03:27:13;;;;;;;11.80;5.10;;;;;;;2.38;78.60;98036.30;222144;1274;24391;-75
2023/03/15 03:32:16;;;;;;;12.60;5.10;;;;;;;2.36;78.75;98039.82;222042;1261;26264;-75
2023/03/15 03:37:20;;;;;;;10.30;5.30;;;;;;;2.33;78.71;98050.49;222083;1274;22973;-77
2023/03/15 03:42:35;;;;;;;9.30;5.60;;;;;;;2.32;78.90;98050.77;222106;1269;22557;-76
2023/03/15 03:47:38;;;;;;;9.80;5.20;;;;;;;2.33;79.08;98059.05;222228;1274;25345;-76
2023/03/15 03:52:43;;;;;;;11.40;5.40;;;;;;;2.33;78.86;98071.05;222308;1272;22531;-77
2023/03/15 03:57:52;;;;;;;10.00;4.90;;;;;;;2.35;78.89;98083.90;222042;1274;22553;-78
2023/03/15 04:03:09;;;;;;;11.90;5.00;;;;;;;2.34;78.72;98098.73;222216;1274;22584;-77
2023/03/15 04:08:15;;;;;;;11.90;5.20;;;;;;;2.34;78.90;98100.34;222220;1270;25100;-78
2023/03/15 04:13:22;;;;;;;12.80;4.80;;;;;;;2.32;79.05;98093.69;222132;1274;22549;-77
2023/03/15 04:18:24;;;;;;;12.60;5.60;;;;;;;2.31;79.01;98091.77;222179;1271;25395;-77
2023/03/15 04:23:26;;;;;;;9.90;4.90;;;;;;;2.30;78.86;98096.34;222072;1273;22521;-77
2023/03/15 04:28:37;;;;;;;9.90;5.00;;;;;;;2.29;78.98;98116.05;222232;1274;22517;-75
2023/03/15 04:33:59;;;;;;;9.10;4.70;;;;;;;2.29;78.83;98117.14;222379;1267;22629;-77
2023/03/15 04:40:00;;;;;;;12.20;4.40;;;;;;;2.28;78.88;98124.17;221153;1280;22533;-77
2023/03/15 04:45:30;;;;;;;12.90;4.00;;;;;;;2.25;78.88;98121.89;222172;1274;22586;-75
2023/03/15 04:50:55;;;;;;;9.10;3.60;;;;;;;2.22;78.89;98137.42;221887;1274;22539;-76
2023/03/15 04:56:12;;;;;;;6.20;2.60;;;;;;;2.20;78.90;98140.98;222248;1274;22538;-77
2023/03/15 05:01:27;;;;;;;9.00;3.20;;;;;;;2.15;78.70;98145.98;222115;1273;22531;-77
2023/03/15 05:06:48;;;;;;;5.10;2.60;;;;;;;2.10;78.93;98154.58;222071;1273;22524;-77
2023/03/15 05:12:07;;;;;;;6.60;2.50;;;;;;;2.04;78.89;98152.07;222000;1270;22971;-76
2023/03/15 05:17:24;;;;;;;6.70;2.00;;;;;;;2.00;78.74;98152.53;222037;1274;25373;-78
2023/03/15 05:22:48;;;;;;;8.10;2.30;;;;;;;1.94;78.65;98162.26;222096;1270;25411;-77
2023/03/15 05:27:54;;;;;;;10.20;2.50;;;;;;;1.91;78.81;98160.67;221930;1274;22599;-77
2023/03/15 05:33:21;;;;;;;10.70;2.30;;;;;;;1.88;78.55;98170.05;222120;1274;22637;-76
2023/03/15 05:38:43;;;;;;;7.10;2.20;;;;;;;1.86;78.70;98168.79;222103;1274;25310;-77
2023/03/15 05:44:09;;;;;;;10.60;2.60;;;;;;;1.88;78.66;98167.60;222108;1274;22596;-77
2023/03/15 05:49:30;;;;;;;9.40;2.50;;;;;;;1.92;78.62;98175.17;222222;1271;23048;-77
2023/03/15 05:54:43;;;;;;;10.70;2.40;;;;;;;1.99;78.74;98195.29;222120;1274;22491;-75
2023/03/15 06:00:08;;;;;;;8.00;2.40;;;;;;;2.06;78.80;98195.85;221759;1274;24231;-76
2023/03/15 06:05:17;;;;;;;8.70;2.80;;;;;;;2.10;78.58;98210.36;222053;1273;22518;-77
2023/03/15 06:10:20;;;;;;;7.40;2.20;;;;;;;2.17;78.70;98221.84;221988;1273;22535;-77
2023/03/15 06:15:23;;;;;;;9.70;2.30;;;;;;;2.23;78.18;98239.54;222119;1274;24282;-77
2023/03/15 06:20:27;;;;;;;7.60;2.00;;;;;;;2.25;77.77;98249.07;222271;1255;22567;-76
2023/03/15 06:25:31;;;;;;;7.20;2.00;;;;;;;2.28;78.10;98255.91;222001;1274;25374;-77
2023/03/15 06:30:36;;;;;;;5.10;1.80;;;;;;;2.32;77.84;98266.80;222096;1274;25364;-76
2023/03/15 06:35:38;;;;;;;7.90;1.60;;;;;;;2.35;77.68;98271.01;222012;1273;23765;-76
2023/03/15 06:40:43;;;;;;;7.00;1.80;;;;;;;2.39;77.70;98280.65;222367;1267;22727;-76
2023/03/15 06:45:46;;;;;;;8.80;2.10;;;;;;;2.41;77.58;98289.85;222620;1262;22553;-77
2023/03/15 06:50:49;;;;;;;10.50;3.00;;;;;;;2.43;77.58;98292.27;222517;1274;24260;-77
2023/03/15 06:55:51;;;;;;;6.30;1.90;;;;;;;2.49;77.39;98308.94;222593;1262;22549;-77
2023/03/15 07:00:57;;;;;;;8.20;1.60;;;;;;;2.55;77.26;98317.05;222785;1267;22520;-77
2023/03/15 07:06:00;;;;;;;6.40;2.10;;;;;;;2.62;76.94;98325.09;222634;1267;25373;-77
2023/03/15 07:11:03;;;;;;;8.80;2.30;;;;;;;2.64;76.45;98330.95;222891;1255;23821;-77
2023/03/15 07:16:06;;;;;;;8.60;2.20;;;;;;;2.72;76.65;98330.01;222644;1264;22541;-76
2023/03/15 07:21:08;;;;;;;10.50;2.30;;;;;;;2.84;76.54;98346.14;222943;1266;22577;-77
2023/03/15 07:26:15;;;;;;;8.00;1.90;;;;;;;3.01;76.43;98357.58;222672;1256;22654;-75
2023/03/15 07:31:19;;;;;;;6.30;1.90;;;;;;;3.15;76.29;98359.45;222829;1267;22548;-76
2023/03/15 07:36:24;;;;;;;6.00;1.90;;;;;;;3.26;75.87;98361.20;222842;1266;24402;-76
2023/03/15 07:41:36;;;;;;;8.20;2.30;;;;;;;3.34;75.34;98368.52;222851;1255;22555;-78
2023/03/15 07:46:49;;;;;;;9.40;2.20;;;;;;;3.38;75.20;98378.45;222944;1259;22534;-77
2023/03/15 07:51:52;;;;;;;8.00;1.70;;;;;;;3.40;74.70;98387.39;223380;1267;22524;-79
2023/03/15 07:56:58;;;;;;;8.20;2.10;;;;;;;3.43;74.64;98393.00;222660;1268;22535;-80
2023/03/15 08:02:04;;;;;;;9.50;2.10;;;;;;;3.49;74.56;98403.88;223013;1267;26488;-77
2023/03/15 08:07:11;;;;;;;11.70;2.40;;;;;;;3.57;74.06;98397.98;222777;1259;22545;-77
2023/03/15 08:12:20;;;;;;;6.80;2.30;;;;;;;3.63;73.57;98400.66;222815;1260;25418;-77
2023/03/15 08:17:31;;;;;;;8.60;2.70;;;;;;;3.70;73.52;98404.81;222676;1266;25356;-75
2023/03/15 08:22:43;;;;;;;8.00;2.80;;;;;;;3.89;74.00;98410.36;223020;1261;22609;-78
2023/03/15 08:27:54;;;;;;;6.40;2.30;;;;;;;4.12;73.18;98426.33;223373;1252;24368;-77
2023/03/15 08:32:59;;;;;;;8.10;2.80;;;;;;;4.21;72.05;98425.33;223263;1266;22588;-78
2023/03/15 08:38:08;;;;;;;7.60;2.80;;;;;;;4.35;72.01;98436.82;223173;1262;25456;-78
2023/03/15 08:43:17;;;;;;;7.20;2.60;;;;;;;4.54;72.09;98433.30;222882;1266;25297;-77
2023/03/15 08:48:31;;;;;;;7.90;2.50;;;;;;;4.75;71.75;98444.02;222757;1253;24406;-78
2023/03/15 08:53:34;;;;;;;7.00;2.10;;;;;;;4.78;70.67;98449.10;222976;1267;23153;-77
2023/03/15 08:58:36;;;;;;;7.80;2.60;;;;;;;4.71;69.45;98449.55;222800;1267;25337;-77
2023/03/15 09:03:52;;;;;;;8.40;2.40;;;;;;;4.75;69.93;98449.91;223104;1269;22608;-78
2023/03/15 09:08:55;;;;;;;6.90;1.90;;;;;;;4.82;68.73;98465.83;222737;1273;22947;-77
2023/03/15 09:14:00;;;;;;;5.70;1.90;;;;;;;4.83;68.35;98473.70;222910;1259;22529;-77
2023/03/15 09:19:03;;;;;;;7.20;2.20;;;;;;;4.87;68.62;98476.20;223084;1269;23160;-77
2023/03/15 09:24:05;;;;;;;6.20;2.00;;;;;;;4.98;68.85;98473.41;222817;1254;25326;-77
2023/03/15 09:29:20;;;;;;;7.40;2.10;;;;;;;5.06;68.16;98475.25;223759;1270;22546;-78
2023/03/15 09:34:28;;;;;;;4.60;1.90;;;;;;;5.06;66.95;98471.58;224828;1267;22555;-78
2023/03/15 09:39:55;;;;;;;7.60;2.00;;;;;;;5.12;67.22;98472.02;224438;1268;22566;-78
2023/03/15 09:45:06;;;;;;;5.70;1.60;;;;;;;5.15;66.70;98479.60;224505;1255;25292;-76
2023/03/15 09:50:25;;;;;;;4.90;1.30;;;;;;;5.15;65.95;98486.27;224482;1267;22625;-76
2023/03/15 09:55:28;;;;;;;5.20;1.50;;;;;;;5.27;66.26;98490.06;224845;1267;22601;-76
2023/03/15 10:00:40;;;;;;;4.10;1.40;;;;;;;5.44;66.19;98492.05;224629;1266;22627;-76
2023/03/15 10:05:48;;;;;;;5.10;1.90;;;;;;;5.51;65.45;98486.81;224764;1263;22556;-77
2023/03/15 10:11:08;;;;;;;4.90;1.60;;;;;;;5.53;64.35;98485.52;224622;1267;22545;-77
2023/03/15 10:16:41;;;;;;;6.90;1.50;;;;;;;5.45;63.24;98487.23;224585;1259;22545;-76
2023/03/15 10:22:10;;;;;;;7.40;1.50;;;;;;;5.37;62.79;98486.02;224803;1266;23820;-77
2023/03/15 10:27:38;;;;;;;4.60;1.50;;;;;;;5.30;62.67;98495.27;224629;1263;22541;-77
2023/03/15 10:32:45;;;;;;;6.10;1.80;;;;;;;5.18;62.80;98490.29;224622;1268;22534;-77
2023/03/15 10:37:51;;;;;;;5.70;1.30;;;;;;;5.17;63.52;98496.43;224537;1265;25425;-76
2023/03/15 10:42:58;;;;;;;4.40;1.30;;;;;;;5.23;63.54;98510.66;224229;1251;22555;-76
2023/03/15 10:48:06;;;;;;;5.60;1.40;;;;;;;5.23;62.89;98504.91;224130;1268;22834;-76
2023/03/15 10:53:20;;;;;;;5.20;1.20;;;;;;;5.23;62.90;98511.23;224780;1269;22555;-77
2023/03/15 10:58:38;;;;;;;7.60;1.70;;;;;;;5.23;63.07;98509.40;224639;1269;22532;-75
2023/03/15 11:03:43;;;;;;;4.40;1.30;;;;;;;5.24;63.32;98518.29;224599;1267;24254;-76
2023/03/15 11:08:48;;;;;;;4.60;1.60;;;;;;;5.21;63.52;98508.46;224442;1267;22552;-77
2023/03/15 11:14:01;;;;;;;6.50;1.60;;;;;;;5.25;63.82;98515.88;224391;1257;22520;-75
2023/03/15 11:19:14;;;;;;;6.50;1.50;;;;;;;5.29;63.85;98518.75;224507;1262;22870;-75
2023/03/15 11:24:23;;;;;;;5.10;1.50;;;;;;;5.29;63.22;98526.28;224413;1269;23821;-76
2023/03/15 11:29:34;;;;;;;4.60;1.60;;;;;;;5.24;62.90;98520.63;224711;1268;25429;-75
2023/03/15 11:34:44;;;;;;;5.40;1.80;;;;;;;5.21;62.69;98522.38;224389;1267;23204;-76
2023/03/15 11:39:56;;;;;;;4.50;1.70;;;;;;;5.19;62.61;98526.16;224320;1268;22649;-77
2023/03/15 11:45:50;;;;;;;4.90;1.80;;;;;;;5.21;62.60;98523.80;224547;1269;22947;-75
2023/03/15 11:51:24;;;;;;;6.30;1.90;;;;;;;5.35;63.12;98528.87;224647;1267;25358;-76
2023/03/15 11:57:01;;;;;;;6.50;1.90;;;;;;;5.40;62.95;98529.49;224627;1263;23637;-76
2023/03/15 12:02:34;;;;;;;5.70;1.80;;;;;;;5.43;63.07;98522.53;224611;1259;22558;-76
2023/03/15 12:07:55;;;;;;;5.10;1.60;;;;;;;5.49;63.03;98525.45;224291;1268;26515;-77
2023/03/15 12:13:06;;;;;;;7.30;1.80;;;;;;;5.56;63.16;98530.24;224630;1268;22580;-78
2023/03/15 12:18:15;;;;;;;5.20;2.00;;;;;;;5.65;63.05;98526.71;224726;1268;22541;-78
2023/03/15 12:23:17;;;;;;;5.10;2.00;;;;;;;5.73;62.55;98523.90;224383;1268;22535;-76
2023/03/15 12:28:40;;;;;;;6.50;2.10;;;;;;;5.76;63.06;98530.75;224537;1267;26353;-76
2023/03/15 12:33:56;;;;;;;;;;;;;;;5.86;62.98;98529.48;224368;1262;23659;-75
2023/03/15 12:39:20;;;;;;;6.90;2.50;;;;;;;6.00;62.64;98526.21;224050;1274;22580;-76
2023/03/15 12:44:34;;;;;;;7.00;2.30;;;;;;;6.09;62.33;98531.20;224320;1268;22614;-76
2023/03/15 12:49:44;;;;;;;6.80;2.40;;;;;;;6.21;62.00;98530.63;224361;1267;22685;-76
2023/03/15 12:55:00;;;;;;;6.70;2.60;;;;;;;6.24;61.48;98534.15;224354;1268;22693;-77
2023/03/15 13:00:20;;;;;;;5.50;2.50;;;;;;;6.26;61.49;98541.06;224390;1268;25346;-76
2023/03/15 13:05:42;;;;;;;7.40;2.60;;;;;;;6.26;61.18;98548.44;224422;1267;22951;-76
2023/03/15 13:11:25;;;;;;;;;;;;;;;;;;;;;
2023/03/15 13:16:37;;;;;;;4.20;2.30;;;;;;;6.29;61.29;98549.16;224454;1268;22535;-77
2023/03/15 13:22:37;;;;;;;7.80;2.60;;;;;;;6.30;61.25;98554.61;224695;1255;22603;-78
2023/03/15 13:28:14;;;;;;;4.90;2.20;;;;;;;6.39;61.12;98555.38;223184;1281;22787;-77
2023/03/15 13:33:44;;;;;;;5.80;2.20;;;;;;;6.42;60.49;98558.77;224057;1252;23963;-77
2023/03/15 13:38:51;;;;;;;;;;;;;;;6.31;59.88;98561.56;224149;1271;23649;-77
2023/03/15 13:44:03;;;;;;;5.30;1.90;;;;;;;6.24;60.62;98563.16;224155;1271;22748;-78
2023/03/15 13:49:13;;;;;;;5.50;2.20;;;;;;;6.26;61.07;98577.44;224250;1271;22524;-77
2023/03/15 13:54:19;;;;;;;6.70;2.00;;;;;;;6.36;61.25;98584.86;224181;1274;22018;-75
2023/03/15 13:59:31;;;;;;;5.00;1.40;;;;;;;6.44;60.31;98589.35;224192;1266;24341;-75
2023/03/15 14:04:38;;;;;;;5.60;1.60;;;;;;;6.42;59.60;98589.55;223999;1271;24113;-75
2023/03/15 14:09:41;;;;;;;5.10;1.80;;;;;;;6.45;59.91;98597.75;223883;1269;23660;-76
2023/03/15 14:15:31;;;;;;;4.00;1.70;;;;;;;6.47;59.77;98599.79;223901;1273;22551;-76
2023/03/15 14:21:03;;;;;;;6.70;1.90;;;;;;;6.53;59.76;98607.90;224485;1272;23106;-75
2023/03/15 14:26:23;;;;;;;5.40;1.40;;;;;;;6.50;59.45;98604.21;224365;1272;22550;-78
2023/03/15 14:32:06;;;;;;;3.70;1.60;;;;;;;6.56;59.82;98606.21;227661;1268;24420;-75
2023/03/15 14:37:39;;;;;;;3.70;1.30;;;;;;;6.61;59.35;98600.19;227600;1266;22491;-78
2023/03/15 14:42:46;;;;;;;5.30;1.60;;;;;;;6.56;59.36;98600.77;227777;1269;22203;-75
2023/03/15 14:48:04;;;;;;;6.40;2.20;;;;;;;6.49;59.93;98598.05;227673;1274;24131;-76
2023/03/15 14:53:11;;;;;;;9.30;4.10;;;;;;;6.51;59.92;98597.10;227375;1267;300071;-74
2023/03/15 14:58:16;;;;;;;5.40;1.70;;;;;;;6.51;59.63;98603.23;225816;1252;25151;-75
2023/03/15 15:03:47;;;;;;;8.00;1.80;;;;;;;6.47;59.46;98596.17;222519;1269;25393;-74
2023/03/15 15:08:54;;;;;;;5.60;2.00;;;;;;;6.33;59.45;98593.67;222300;1271;22532;-75
2023/03/15 15:13:57;;;;;;;6.20;1.80;;;;;;;6.26;60.29;98591.95;222256;1271;22751;-75
2023/03/15 15:18:59;;;;;;;9.50;2.60;;;;;;;6.19;60.10;98598.46;222010;1274;23038;-75
2023/03/15 15:24:13;;;;;;;4.60;1.70;;;;;;;6.18;60.52;98603.00;222095;1272;25214;-75
2023/03/15 15:29:20;;;;;;;5.10;2.10;;;;;;;6.21;60.67;98609.35;222215;1272;24255;-76
2023/03/15 15:34:32;;;;;;;9.30;1.90;;;;;;;6.26;60.70;98607.86;222078;1274;24645;-74
2023/03/15 15:39:39;;;;;;;6.50;2.20;;;;;;;6.23;60.36;98613.24;222380;1271;25345;-75
2023/03/15 15:44:44;;;;;;;7.80;2.60;;;;;;;6.17;60.29;98617.12;222309;1274;25317;-74
2023/03/15 15:49:47;;;;;;;5.40;2.10;;;;;;;6.11;60.82;98614.80;222105;1274;25453;-76
2023/03/15 15:54:55;;;;;;;7.70;2.50;;;;;;;6.05;60.85;98615.80;222194;1272;22770;-76
2023/03/15 16:00:00;;;;;;;11.30;2.80;;;;;;;5.95;60.96;98617.79;222058;1274;22528;-75
2023/03/15 16:05:03;;;;;;;10.50;2.40;;;;;;;5.86;61.08;98615.47;222051;1269;23743;-74
2023/03/15 16:10:14;;;;;;;9.20;3.50;;;;;;;5.75;61.09;98618.00;222085;1274;22520;-75
2023/03/15 16:15:18;;;;;;;8.90;3.00;;;;;;;5.66;61.55;98612.83;222135;1274;25067;-75
2023/03/15 16:20:22;;;;;;;4.70;2.20;;;;;;;5.62;61.66;98602.75;222404;1271;23177;-74
2023/03/15 16:25:35;;;;;;;6.80;2.50;;;;;;;5.57;61.67;98613.08;222219;1274;25345;-75
2023/03/15 16:30:43;;;;;;;5.20;2.00;;;;;;;5.46;61.45;98620.42;222313;1274;26433;-76
2023/03/15 16:35:48;;;;;;;7.10;2.50;;;;;;;5.30;61.57;98630.13;221999;1274;22742;-75
2023/03/15 16:40:52;;;;;;;6.80;1.70;;;;;;;5.15;61.76;98638.25;222990;1274;25578;-74
2023/03/15 16:45:56;;;;;;;7.80;2.20;;;;;;;5.02;62.02;98646.10;222242;1271;25067;-73
2023/03/15 16:51:04;;;;;;;6.40;2.20;;;;;;;4.90;62.51;98648.89;222016;1273;25514;-74
2023/03/15 16:56:13;;;;;;;6.40;2.60;;;;;;;4.80;62.72;98658.12;222182;1274;22973;-74
2023/03/15 17:01:17;;;;;;;8.40;2.40;;;;;;;4.68;62.94;98664.33;222137;1272;22548;-75
2023/03/15 17:06:22;;;;;;;6.30;2.70;;;;;;;4.56;62.99;98670.81;222084;1274;22562;-74
2023/03/15 17:11:27;;;;;;;7.50;3.30;;;;;;;4.41;63.14;98667.90;222479;1274;22620;-74
2023/03/15 17:16:30;;;;;;;8.40;3.90;;;;;;;4.28;63.24;98668.41;222087;1273;22581;-74
2023/03/15 17:21:34;;;;;;;9.80;4.00;;;;;;;4.15;63.34;98680.98;222227;1274;22550;-74
2023/03/15 17:26:42;;;;;;;10.40;4.70;;;;;;;4.03;63.71;98688.70;222262;1274;25325;-77
2023/03/15 17:31:47;;;;;;;15.80;5.20;;;;;;;3.95;63.87;98694.47;222260;1274;24187;-75
2023/03/15 17:36:50;;;;;;;12.80;5.00;;;;;;;3.87;64.20;98700.58;222232;1274;22536;-74
2023/03/15 17:41:57;;;;;;;11.30;5.00;;;;;;;3.82;64.47;98707.21;222064;1274;25223;-74
2023/03/15 17:47:05;;;;;;;19.20;5.30;;;;;;;3.76;64.61;98710.87;222133;1274;22524;-75
2023/03/15 17:52:16;;;;;;;11.50;5.30;;;;;;;3.70;64.74;98719.14;222300;1274;24983;-74
2023/03/15 17:57:28;;;;;;;11.00;5.00;;;;;;;3.64;64.89;98730.90;222119;1273;24760;-74
2023/03/15 18:02:35;;;;;;;17.80;6.40;;;;;;;3.56;65.13;98728.53;222341;1271;22540;-74
2023/03/15 18:07:41;;;;;;;16.50;6.00;;;;;;;3.48;65.51;98732.08;222339;1274;25303;-74
2023/03/15 18:13:02;;;;;;;17.90;7.30;;;;;;;3.41;65.63;98737.77;222264;1274;22581;-73
2023/03/15 18:18:05;;;;;;;15.30;6.70;;;;;;;3.34;65.53;98739.67;222439;1270;23093;-74
2023/03/15 18:23:13;;;;;;;14.30;7.50;;;;;;;3.29;65.76;98741.66;222395;1272;22517;-73
2023/03/15 18:28:17;;;;;;;19.60;8.20;;;;;;;3.23;65.99;98739.08;222423;1271;24202;-75
2023/03/15 18:33:22;;;;;;;19.70;7.50;;;;;;;3.18;66.19;98739.70;222112;1274;24283;-75
2023/03/15 18:38:24;;;;;;;20.60;8.50;;;;;;;3.16;66.59;98740.44;222050;1274;23900;-74
2023/03/15 18:43:30;;;;;;;20.80;10.20;;;;;;;3.14;66.55;98742.50;222046;1274;22528;-74
2023/03/15 18:48:32;;;;;;;36.30;18.60;;;;;;;3.14;66.75;98742.83;222066;1274;22977;-73
2023/03/15 18:53:52;;;;;;;48.40;25.00;;;;;;;3.15;66.90;98749.27;222084;1273;22530;-73
2023/03/15 18:59:05;;;;;;;49.80;24.60;;;;;;;3.15;67.33;98757.04;222252;1272;22562;-73
2023/03/15 19:04:18;;;;;;;49.70;23.60;;;;;;;3.15;67.30;98761.20;222266;1271;25470;-74
2023/03/15 19:09:23;;;;;;;48.50;24.60;;;;;;;3.10;67.17;98763.05;222261;1274;23283;-74
2023/03/15 19:14:26;;;;;;;46.50;23.70;;;;;;;3.05;67.21;98769.10;222494;1274;22552;-73
2023/03/15 19:19:32;;;;;;;41.60;22.00;;;;;;;2.99;67.29;98771.93;221950;1271;23772;-74
2023/03/15 19:24:35;;;;;;;49.80;22.60;;;;;;;2.95;67.68;98777.35;222323;1252;22539;-74
2023/03/15 19:29:39;;;;;;;50.30;23.20;;;;;;;2.97;67.53;98786.03;222035;1270;22535;-74
2023/03/15 19:34:42;;;;;;;52.60;25.80;;;;;;;2.95;67.49;98797.73;222396;1274;24291;-75
2023/03/15 19:39:54;;;;;;;58.10;27.00;;;;;;;2.90;67.56;98804.07;222083;1274;23570;-74
2023/03/15 19:44:56;;;;;;;62.20;29.00;;;;;;;2.86;67.63;98809.36;222146;1274;22527;-74
2023/03/15 19:50:00;;;;;;;66.20;31.90;;;;;;;2.78;67.96;98824.45;222086;1273;22569;-74
2023/03/15 19:55:05;;;;;;;72.80;36.50;;;;;;;2.69;68.00;98831.75;222310;1272;24284;-74
2023/03/15 20:00:13;;;;;;;59.00;28.40;;;;;;;2.58;68.40;98829.59;222110;1274;22548;-74
2023/03/15 20:05:19;;;;;;;41.30;21.10;;;;;;;2.52;68.82;98830.54;222487;1272;22520;-74
2023/03/15 20:10:22;;;;;;;45.90;23.50;;;;;;;2.51;68.61;98835.10;222108;1274;25492;-74
2023/03/15 20:15:25;;;;;;;33.70;17.30;;;;;;;2.50;68.95;98838.29;222051;1274;22531;-74
2023/03/15 20:20:30;;;;;;;24.50;11.70;;;;;;;2.46;68.86;98842.96;222305;1272;23366;-74
2023/03/15 20:25:34;;;;;;;23.00;10.20;;;;;;;2.38;68.94;98846.81;222075;1274;22597;-74
2023/03/15 20:30:41;;;;;;;20.70;9.20;;;;;;;2.27;69.01;98852.36;222107;1273;25129;-74
2023/03/15 20:35:45;;;;;;;17.10;8.60;;;;;;;2.14;69.49;98853.83;222341;1272;22544;-75
2023/03/15 20:40:53;;;;;;;25.50;10.10;;;;;;;2.02;69.42;98862.11;222102;1274;22695;-74
2023/03/15 20:46:03;;;;;;;23.50;9.90;;;;;;;1.90;69.69;98862.77;222091;1274;24289;-73
2023/03/15 20:51:06;;;;;;;21.30;10.30;;;;;;;1.80;69.88;98866.69;222245;1271;22605;-74
2023/03/15 20:56:13;;;;;;;24.50;10.20;;;;;;;1.68;70.05;98872.55;222114;1251;24272;-73
2023/03/15 21:01:16;;;;;;;26.80;11.40;;;;;;;1.55;70.35;98881.95;221943;1273;22524;-74
2023/03/15 21:06:22;;;;;;;28.70;12.70;;;;;;;1.42;70.58;98888.25;222033;1274;23313;-74
2023/03/15 21:11:24;;;;;;;27.30;11.90;;;;;;;1.29;70.83;98895.75;222183;1272;25300;-74
2023/03/15 21:16:27;;;;;;;28.70;12.70;;;;;;;1.17;71.11;98900.05;222068;1273;25352;-74
2023/03/15 21:21:29;;;;;;;23.10;11.70;;;;;;;1.05;71.24;98903.32;222162;1274;24237;-74
2023/03/15 21:26:32;;;;;;;20.40;9.60;;;;;;;0.95;71.72;98908.94;221996;1274;22646;-74
2023/03/15 21:31:35;;;;;;;23.50;10.70;;;;;;;0.87;71.86;98912.77;221908;1274;22544;-73
2023/03/15 21:36:38;;;;;;;18.30;9.40;;;;;;;0.80;71.80;98925.99;222000;1274;22556;-74
2023/03/15 21:41:42;;;;;;;16.40;8.90;;;;;;;0.74;72.24;98931.48;221964;1274;22645;-73
2023/03/15 21:46:44;;;;;;;14.10;7.70;;;;;;;0.71;72.35;98935.71;221918;1274;23859;-73
2023/03/15 21:51:47;;;;;;;14.40;7.30;;;;;;;0.67;72.44;98938.44;222062;1274;22524;-73
2023/03/15 21:56:51;;;;;;;16.60;7.80;;;;;;;0.61;72.45;98939.63;222049;1273;24270;-74
2023/03/15 22:01:56;;;;;;;20.00;8.30;;;;;;;0.53;72.64;98944.42;222028;1273;22521;-74
2023/03/15 22:07:00;;;;;;;12.90;7.00;;;;;;;0.47;72.90;98948.04;221947;1274;22577;-74
2023/03/15 22:12:04;;;;;;;14.90;8.30;;;;;;;0.42;73.37;98951.58;222031;1255;22591;-74
2023/03/15 22:17:09;;;;;;;15.70;8.40;;;;;;;0.39;73.17;98955.73;222126;1251;24235;-75
2023/03/15 22:22:11;;;;;;;17.30;8.00;;;;;;;0.39;73.41;98962.05;222188;1274;22637;-74
2023/03/15 22:27:14;;;;;;;14.80;8.10;;;;;;;0.39;73.66;98964.97;222056;1273;22527;-74
2023/03/15 22:32:17;;;;;;;16.60;8.00;;;;;;;0.39;73.74;98967.21;221994;1268;22549;-73
2023/03/15 22:37:32;;;;;;;18.60;9.00;;;;;;;0.38;73.90;98971.80;222225;1270;24188;-74
2023/03/15 22:42:36;;;;;;;20.60;10.70;;;;;;;0.36;74.47;98973.66;222049;1273;24249;-75
2023/03/15 22:47:42;;;;;;;14.80;9.50;;;;;;;0.32;74.58;98978.96;222018;1270;25328;-74
2023/03/15 22:52:47;;;;;;;19.50;10.20;;;;;;;0.28;74.79;98980.69;222476;1270;22525;-73
2023/03/15 22:57:50;;;;;;;19.30;10.50;;;;;;;0.22;74.90;98988.98;222005;1264;22554;-74
2023/03/15 23:02:52;;;;;;;18.40;10.80;;;;;;;0.15;74.85;98994.14;222054;1273;25661;-73
2023/03/15 23:07:55;;;;;;;22.10;10.90;;;;;;;0.09;75.02;98996.88;222021;1270;22528;-74
2023/03/15 23:12:59;;;;;;;18.20;11.00;;;;;;;0.04;75.39;98999.88;222025;1274;22523;-72
2023/03/15 23:18:04;;;;;;;21.40;11.80;;;;;;;-0.04;75.39;98999.55;222453;1270;25284;-73
2023/03/15 23:23:07;;;;;;;24.40;12.00;;;;;;;-0.09;75.35;99005.67;222321;1267;23750;-74
2023/03/15 23:28:10;;;;;;;30.40;13.50;;;;;;;-0.15;75.54;99012.75;222150;1274;22518;-74
2023/03/15 23:33:15;;;;;;;27.10;13.20;;;;;;;-0.20;75.52;99016.94;222023;1274;22535;-72
2023/03/15 23:38:18;;;;;;;26.00;13.40;;;;;;;-0.26;75.76;99014.74;222192;1270;22612;-73
2023/03/15 23:43:20;;;;;;;23.70;13.00;;;;;;;-0.31;76.15;99022.61;221996;1272;22579;-74
2023/03/15 23:48:24;;;;;;;22.80;13.20;;;;;;;-0.37;76.22;99022.84;222030;1274;25435;-72
2023/03/15 23:53:27;;;;;;;20.30;12.70;;;;;;;-0.42;76.78;99029.98;222191;1270;22519;-73
2023/03/15 23:58:30;;;;;;;23.80;12.90;;;;;;;-0.48;76.97;99031.98;222205;1270;25440;-74
